Wetterdaten: Woche 29.10.12 - 04.11.12 (KW44)
Datum Zeit Temp. Innen Temp. Aussen UV X Diff Temp. Feuchte Inne Feuchte Auss Sonnenschein Luftdruck Regen ab 0,1 Wind Sonnenschein T Regendauer Windben
29.10.2012 00:00 14,2 C 0,7 C 0,0 UV-I 0,0 C 42 % 85 % 0 % 1015,4 hPa 0,0 l/m 3,6 km/h (1 Bft) 0,00 h 0,00 h 5,9 km/h (2 Bft)
29.10.2012 01:00 14,3 C 0,7 C 0,0 UV-I 0,0 C 42 % 84 % 0 % 1015,1 hPa 0,0 l/m 4,8 km/h (1 Bft) 0,00 h 0,00 h 6,3 km/h (2 Bft)
29.10.2012 02:00 14,2 C 0,8 C 0,0 UV-I 0,0 C 41 % 84 % 0 % 1015,0 hPa 0,0 l/m 4,2 km/h (1 Bft) 0,00 h 0,00 h 7,1 km/h (2 Bft)
29.10.2012 03:00 14,1 C 1,4 C 0,0 UV-I 0,0 C 41 % 82 % 0 % 1014,5 hPa 0,0 l/m 5,5 km/h (1 Bft) 0,00 h 0,00 h 8,0 km/h (2 Bft)
29.10.2012 04:00 14,2 C 1,5 C 0,0 UV-I 0,0 C 41 % 81 % 0 % 1014,0 hPa 0,0 l/m 4,7 km/h (1 Bft) 0,00 h 0,00 h 7,6 km/h (2 Bft)
29.10.2012 05:00 14,2 C 1,5 C 0,0 UV-I 0,0 C 41 % 81 % 0 % 1013,8 hPa 0,0 l/m 4,7 km/h (1 Bft) 0,00 h 0,00 h 6,2 km/h (2 Bft)
29.10.2012 06:00 14,2 C 1,5 C 0,0 UV-I 0,0 C 41 % 81 % 0 % 1013,5 hPa 0,0 l/m 5,9 km/h (2 Bft) 0,00 h 0,00 h 8,8 km/h (2 Bft)
29.10.2012 07:00 14,2 C 1,6 C 0,0 UV-I 0,0 C 41 % 82 % 0 % 1013,2 hPa 0,0 l/m 6,9 km/h (2 Bft) 0,00 h 0,00 h 9,8 km/h (2 Bft)
29.10.2012 08:00 14,2 C 2,1 C 0,0 UV-I 0,0 C 41 % 82 % 0 % 1013,3 hPa 0,0 l/m 6,4 km/h (2 Bft) 0,00 h 0,10 h 9,3 km/h (2 Bft)
29.10.2012 09:00 14,2 C 3,2 C 0,0 UV-I 0,1 C 42 % 83 % 2 % 1013,2 hPa 0,0 l/m 2,0 km/h (1 Bft) 0,00 h 0,63 h 3,6 km/h (1 Bft)
29.10.2012 10:00 14,4 C 4,0 C 0,0 UV-I 0,0 C 43 % 85 % 0 % 1013,0 hPa 1,0 l/m 1,9 km/h (1 Bft) 0,00 h 1,00 h 3,5 km/h (1 Bft)
29.10.2012 11:00 14,5 C 4,6 C 0,0 UV-I 0,0 C 45 % 89 % 0 % 1012,5 hPa 1,0 l/m 2,9 km/h (1 Bft) 0,00 h 1,00 h 4,0 km/h (1 Bft)
29.10.2012 12:00 14,7 C 5,3 C 0,1 UV-I 0,3 C 46 % 91 % 10 % 1011,8 hPa 0,1 l/m 3,9 km/h (1 Bft) 0,00 h 0,07 h 6,1 km/h (2 Bft)
29.10.2012 13:00 14,8 C 5,9 C 0,0 UV-I 0,5 C 47 % 91 % 13 % 1011,2 hPa 0,0 l/m 3,7 km/h (1 Bft) 0,00 h 0,00 h 4,3 km/h (1 Bft)
29.10.2012 14:00 14,8 C 6,4 C 0,0 UV-I 0,3 C 48 % 90 % 9 % 1010,6 hPa 0,0 l/m 3,7 km/h (1 Bft) 0,00 h 0,00 h 5,5 km/h (1 Bft)
29.10.2012 15:00 14,8 C 6,9 C 0,0 UV-I 0,1 C 49 % 90 % 3 % 1010,1 hPa 0,0 l/m 4,1 km/h (1 Bft) 0,00 h 0,13 h 6,9 km/h (2 Bft)
29.10.2012 16:00 14,8 C 6,7 C 0,0 UV-I 0,0 C 50 % 90 % 0 % 1009,7 hPa 0,0 l/m 2,9 km/h (1 Bft) 0,00 h 0,37 h 5,1 km/h (1 Bft)
29.10.2012 17:00 14,8 C 6,4 C 0,0 UV-I 0,0 C 50 % 91 % 0 % 1009,2 hPa 0,2 l/m 3,3 km/h (1 Bft) 0,00 h 0,40 h 5,1 km/h (1 Bft)
29.10.2012 18:00 14,7 C 6,4 C 0,0 UV-I 0,0 C 51 % 91 % 0 % 1008,8 hPa 0,1 l/m 4,6 km/h (1 Bft) 0,00 h 0,43 h 6,7 km/h (2 Bft)
29.10.2012 19:00 14,6 C 6,4 C 0,0 UV-I 0,0 C 51 % 91 % 0 % 1008,5 hPa 0,2 l/m 3,4 km/h (1 Bft) 0,00 h 0,67 h 4,5 km/h (1 Bft)
29.10.2012 20:00 14,7 C 6,5 C 0,0 UV-I 0,0 C 52 % 91 % 0 % 1007,9 hPa 0,0 l/m 5,5 km/h (1 Bft) 0,00 h 0,00 h 9,2 km/h (2 Bft)
29.10.2012 21:00 14,7 C 6,9 C 0,0 UV-I 0,0 C 51 % 89 % 0 % 1007,4 hPa 0,0 l/m 5,9 km/h (2 Bft) 0,00 h 0,00 h 12,0 km/h (2 Bft)
29.10.2012 22:00 14,7 C 7,3 C 0,0 UV-I 0,0 C 52 % 88 % 0 % 1006,7 hPa 0,1 l/m 7,9 km/h (2 Bft) 0,00 h 0,30 h 11,4 km/h (2 Bft)
29.10.2012 23:00 14,7 C 7,1 C 0,0 UV-I 0,0 C 53 % 90 % 0 % 1005,9 hPa 0,4 l/m 7,8 km/h (2 Bft) 0,00 h 0,53 h 11,1 km/h (2 Bft)
30.10.2012 00:00 14,7 C 7,2 C 0,0 UV-I 0,0 C 53 % 91 % 0 % 1005,2 hPa 0,1 l/m 7,4 km/h (2 Bft) 0,00 h 0,20 h 11,9 km/h (2 Bft)
30.10.2012 01:00 14,8 C 7,5 C 0,0 UV-I 0,0 C 54 % 92 % 0 % 1004,5 hPa 0,1 l/m 5,8 km/h (2 Bft) 0,00 h 0,47 h 9,3 km/h (2 Bft)
30.10.2012 02:00 14,8 C 7,5 C 0,0 UV-I 0,0 C 55 % 93 % 0 % 1004,3 hPa 0,1 l/m 5,2 km/h (1 Bft) 0,00 h 0,30 h 8,5 km/h (2 Bft)
30.10.2012 03:00 14,8 C 7,6 C 0,0 UV-I 0,0 C 55 % 93 % 0 % 1003,6 hPa 0,6 l/m 5,8 km/h (2 Bft) 0,00 h 0,70 h 11,3 km/h (2 Bft)
30.10.2012 04:00 14,8 C 7,6 C 0,0 UV-I 0,0 C 56 % 94 % 0 % 1003,0 hPa 0,1 l/m 4,7 km/h (1 Bft) 0,00 h 0,23 h 6,2 km/h (2 Bft)
30.10.2012 05:00 15,0 C 7,6 C 0,0 UV-I 0,0 C 56 % 94 % 0 % 1002,7 hPa 0,1 l/m 2,8 km/h (1 Bft) 0,00 h 0,20 h 5,3 km/h (1 Bft)
30.10.2012 06:00 15,1 C 7,8 C 0,0 UV-I 0,0 C 56 % 94 % 0 % 1002,7 hPa 0,0 l/m 3,1 km/h (1 Bft) 0,00 h 0,00 h 4,5 km/h (1 Bft)
30.10.2012 07:00 15,2 C 7,8 C 0,0 UV-I 0,0 C 57 % 94 % 0 % 1003,0 hPa 0,0 l/m 1,2 km/h (1 Bft) 0,00 h 0,00 h 1,9 km/h (1 Bft)
30.10.2012 08:00 15,2 C 7,9 C 0,0 UV-I 0,0 C 57 % 95 % 0 % 1003,4 hPa 0,0 l/m 1,3 km/h (1 Bft) 0,00 h 0,00 h 1,9 km/h (1 Bft)
30.10.2012 09:00 15,3 C 8,1 C 0,0 UV-I 0,0 C 57 % 95 % 1 % 1003,4 hPa 0,0 l/m 1,2 km/h (1 Bft) 0,00 h 0,00 h 2,1 km/h (1 Bft)
30.10.2012 10:00 15,4 C 8,3 C 0,0 UV-I 0,4 C 57 % 94 % 12 % 1003,5 hPa 0,0 l/m 1,9 km/h (1 Bft) 0,00 h 0,03 h 3,2 km/h (1 Bft)
30.10.2012 11:00 15,7 C 9,1 C 0,2 UV-I 2,4 C 57 % 93 % 69 % 1003,6 hPa 0,0 l/m 1,9 km/h (1 Bft) 0,30 h 0,00 h 3,3 km/h (1 Bft)
30.10.2012 12:00 15,9 C 9,2 C 0,1 UV-I 0,3 C 56 % 92 % 9 % 1003,2 hPa 0,9 l/m 0,8 km/h (0 Bft) 0,00 h 0,57 h 1,1 km/h (0 Bft)
30.10.2012 13:00 16,1 C 9,6 C 0,2 UV-I 1,1 C 56 % 90 % 32 % 1003,2 hPa 0,0 l/m 1,7 km/h (1 Bft) 0,00 h 0,00 h 3,0 km/h (1 Bft)
30.10.2012 14:00 16,2 C 9,6 C 0,0 UV-I 0,5 C 55 % 88 % 14 % 1002,8 hPa 0,0 l/m 1,8 km/h (1 Bft) 0,00 h 0,00 h 4,2 km/h (1 Bft)
30.10.2012 15:00 16,3 C 9,4 C 0,0 UV-I 0,3 C 54 % 87 % 10 % 1002,4 hPa 0,0 l/m 2,0 km/h (1 Bft) 0,00 h 0,00 h 3,6 km/h (1 Bft)
30.10.2012 16:00 16,2 C 8,9 C 0,0 UV-I 0,0 C 54 % 88 % 0 % 1002,4 hPa 0,0 l/m 1,0 km/h (0 Bft) 0,00 h 0,00 h 1,9 km/h (1 Bft)
30.10.2012 17:00 15,9 C 8,1 C 0,0 UV-I 0,0 C 54 % 88 % 0 % 1002,5 hPa 0,0 l/m 0,7 km/h (0 Bft) 0,00 h 0,00 h 1,1 km/h (1 Bft)
30.10.2012 18:00 15,8 C 7,5 C 0,0 UV-I 0,0 C 54 % 89 % 0 % 1002,8 hPa 0,0 l/m 0,1 km/h (0 Bft) 0,00 h 0,00 h 0,4 km/h (0 Bft)
30.10.2012 19:00 15,8 C 6,9 C 0,0 UV-I 0,0 C 55 % 90 % 0 % 1002,7 hPa 0,0 l/m 0,2 km/h (0 Bft) 0,00 h 0,00 h 0,9 km/h (0 Bft)
30.10.2012 20:00 15,6 C 6,7 C 0,0 UV-I 0,0 C 55 % 91 % 0 % 1003,0 hPa 0,0 l/m 0,2 km/h (0 Bft) 0,00 h 0,00 h 0,3 km/h (0 Bft)
30.10.2012 21:00 15,7 C 7,1 C 0,0 UV-I 0,0 C 55 % 92 % 0 % 1003,2 hPa 0,0 l/m 0,7 km/h (0 Bft) 0,00 h 0,00 h 1,6 km/h (1 Bft)
30.10.2012 22:00 15,6 C 7,6 C 0,0 UV-I 0,0 C 55 % 92 % 0 % 1003,0 hPa 0,0 l/m 1,3 km/h (1 Bft) 0,00 h 0,00 h 2,4 km/h (1 Bft)
30.10.2012 23:00 15,6 C 7,4 C 0,0 UV-I 0,0 C 55 % 91 % 0 % 1002,7 hPa 0,0 l/m 0,8 km/h (0 Bft) 0,00 h 0,00 h 1,9 km/h (1 Bft)
31.10.2012 00:00 15,6 C 6,3 C 0,0 UV-I 0,0 C 55 % 91 % 0 % 1002,5 hPa 0,0 l/m 0,2 km/h (0 Bft) 0,00 h 0,00 h 0,1 km/h (0 Bft)
31.10.2012 01:00 15,6 C 5,6 C 0,0 UV-I 0,0 C 54 % 92 % 0 % 1002,0 hPa 0,0 l/m 0,3 km/h (0 Bft) 0,00 h 0,00 h 0,5 km/h (0 Bft)
31.10.2012 02:00 15,6 C 5,5 C 0,0 UV-I 0,0 C 54 % 93 % 0 % 1001,6 hPa 0,0 l/m 0,7 km/h (0 Bft) 0,00 h 0,00 h 2,3 km/h (1 Bft)
31.10.2012 03:00 15,5 C 5,3 C 0,0 UV-I 0,0 C 54 % 93 % 0 % 1001,1 hPa 0,0 l/m 1,3 km/h (1 Bft) 0,00 h 0,00 h 2,2 km/h (1 Bft)
31.10.2012 04:00 15,4 C 5,1 C 0,0 UV-I 0,0 C 54 % 93 % 0 % 1000,9 hPa 0,0 l/m 1,5 km/h (1 Bft) 0,00 h 0,00 h 2,6 km/h (1 Bft)
31.10.2012 05:00 15,5 C 5,4 C 0,0 UV-I 0,0 C 54 % 93 % 0 % 1000,5 hPa 0,0 l/m 2,9 km/h (1 Bft) 0,00 h 0,00 h 5,1 km/h (1 Bft)
31.10.2012 06:00 15,4 C 5,2 C 0,0 UV-I 0,0 C 54 % 94 % 0 % 1000,2 hPa 0,0 l/m 2,2 km/h (1 Bft) 0,00 h 0,00 h 3,2 km/h (1 Bft)
31.10.2012 07:00 15,4 C 5,5 C 0,0 UV-I 0,0 C 54 % 94 % 0 % 1000,0 hPa 0,0 l/m 4,6 km/h (1 Bft) 0,00 h 0,03 h 8,6 km/h (2 Bft)
31.10.2012 08:00 15,5 C 6,0 C 0,0 UV-I 0,0 C 54 % 94 % 0 % 999,8 hPa 0,0 l/m 5,4 km/h (1 Bft) 0,00 h 0,00 h 6,8 km/h (2 Bft)
31.10.2012 09:00 15,6 C 7,6 C 0,1 UV-I 1,3 C 54 % 94 % 37 % 999,6 hPa 0,0 l/m 5,0 km/h (1 Bft) 0,10 h 0,00 h 9,0 km/h (2 Bft)
31.10.2012 10:00 15,8 C 9,9 C 0,5 UV-I 5,9 C 54 % 90 % 99 % 999,5 hPa 0,0 l/m 5,2 km/h (1 Bft) 1,00 h 0,00 h 8,3 km/h (2 Bft)
31.10.2012 11:00 15,9 C 11,8 C 0,8 UV-I 6,2 C 54 % 80 % 100 % 999,0 hPa 0,0 l/m 8,1 km/h (2 Bft) 1,00 h 0,00 h 12,4 km/h (3 Bft)
31.10.2012 12:00 16,5 C 13,2 C 1,3 UV-I 5,2 C 53 % 67 % 100 % 998,1 hPa 0,0 l/m 8,5 km/h (2 Bft) 0,97 h 0,00 h 11,1 km/h (2 Bft)
31.10.2012 13:00 18,0 C 13,3 C 1,1 UV-I 3,7 C 49 % 59 % 99 % 998,9 hPa 0,0 l/m 10,6 km/h (2 Bft) 1,00 h 0,00 h 14,1 km/h (3 Bft)
31.10.2012 14:00 19,4 C 14,0 C 0,8 UV-I 4,1 C 44 % 54 % 99 % 997,1 hPa 0,0 l/m 9,7 km/h (2 Bft) 1,00 h 0,00 h 12,7 km/h (3 Bft)
31.10.2012 15:00 20,1 C 13,5 C 0,2 UV-I 2,8 C 41 % 55 % 79 % 995,5 hPa 0,0 l/m 9,1 km/h (2 Bft) 0,97 h 0,00 h 11,8 km/h (2 Bft)
31.10.2012 16:00 19,7 C 12,2 C 0,0 UV-I 0,0 C 41 % 60 % 1 % 994,9 hPa 0,0 l/m 7,7 km/h (2 Bft) 0,00 h 0,00 h 10,2 km/h (2 Bft)
31.10.2012 17:00 18,6 C 10,5 C 0,0 UV-I 0,0 C 44 % 68 % 0 % 994,3 hPa 0,0 l/m 5,4 km/h (1 Bft) 0,00 h 0,00 h 7,6 km/h (2 Bft)
31.10.2012 18:00 17,5 C 8,9 C 0,0 UV-I 0,0 C 46 % 73 % 0 % 994,2 hPa 0,0 l/m 3,4 km/h (1 Bft) 0,00 h 0,00 h 6,0 km/h (2 Bft)
31.10.2012 19:00 16,9 C 8,1 C 0,0 UV-I 0,0 C 48 % 77 % 0 % 994,0 hPa 0,0 l/m 3,5 km/h (1 Bft) 0,00 h 0,00 h 6,0 km/h (2 Bft)
31.10.2012 20:00 16,7 C 7,8 C 0,0 UV-I 0,0 C 48 % 79 % 0 % 993,8 hPa 0,0 l/m 8,1 km/h (2 Bft) 0,00 h 0,00 h 10,0 km/h (2 Bft)
31.10.2012 21:00 16,5 C 7,4 C 0,0 UV-I 0,0 C 49 % 81 % 0 % 993,7 hPa 0,0 l/m 7,9 km/h (2 Bft) 0,00 h 0,00 h 10,3 km/h (2 Bft)
31.10.2012 22:00 16,4 C 6,8 C 0,0 UV-I 0,0 C 49 % 82 % 0 % 993,1 hPa 0,0 l/m 4,8 km/h (1 Bft) 0,00 h 0,00 h 6,7 km/h (2 Bft)
31.10.2012 23:00 16,3 C 6,5 C 0,0 UV-I 0,0 C 49 % 83 % 0 % 992,5 hPa 0,0 l/m 8,2 km/h (2 Bft) 0,00 h 0,00 h 10,7 km/h (2 Bft)
01.11.2012 00:00 16,2 C 6,2 C 0,0 UV-I 0,0 C 49 % 83 % 0 % 991,7 hPa 0,0 l/m 7,5 km/h (2 Bft) 0,00 h 0,00 h 9,0 km/h (2 Bft)
01.11.2012 01:00 16,1 C 6,0 C 0,0 UV-I 0,0 C 49 % 84 % 0 % 990,7 hPa 0,0 l/m 7,5 km/h (2 Bft) 0,00 h 0,00 h 9,3 km/h (2 Bft)
01.11.2012 02:00 16,1 C 5,9 C 0,0 UV-I 0,0 C 49 % 84 % 0 % 990,0 hPa 0,0 l/m 6,2 km/h (2 Bft) 0,00 h 0,00 h 9,1 km/h (2 Bft)
01.11.2012 03:00 15,9 C 5,9 C 0,0 UV-I 0,0 C 49 % 84 % 0 % 988,6 hPa 0,0 l/m 7,9 km/h (2 Bft) 0,00 h 0,00 h 9,6 km/h (2 Bft)
01.11.2012 04:00 16,0 C 5,6 C 0,0 UV-I 0,0 C 49 % 85 % 0 % 988,0 hPa 0,0 l/m 6,0 km/h (2 Bft) 0,00 h 0,00 h 7,4 km/h (2 Bft)
01.11.2012 05:00 16,0 C 5,7 C 0,0 UV-I 0,0 C 49 % 88 % 0 % 987,1 hPa 0,0 l/m 6,8 km/h (2 Bft) 0,00 h 0,00 h 8,7 km/h (2 Bft)
01.11.2012 06:00 15,9 C 6,2 C 0,0 UV-I 0,0 C 49 % 88 % 0 % 986,3 hPa 0,0 l/m 7,5 km/h (2 Bft) 0,00 h 0,00 h 11,2 km/h (2 Bft)
01.11.2012 07:00 15,9 C 6,8 C 0,0 UV-I 0,0 C 49 % 86 % 0 % 985,7 hPa 0,0 l/m 9,6 km/h (2 Bft) 0,00 h 0,00 h 12,6 km/h (3 Bft)
01.11.2012 08:00 15,9 C 7,2 C 0,0 UV-I 0,1 C 49 % 85 % 2 % 985,4 hPa 0,0 l/m 11,7 km/h (2 Bft) 0,03 h 0,00 h 18,1 km/h (3 Bft)
01.11.2012 09:00 16,0 C 8,5 C 0,0 UV-I 0,5 C 49 % 82 % 13 % 984,6 hPa 0,0 l/m 10,5 km/h (2 Bft) 0,03 h 0,00 h 13,2 km/h (3 Bft)
01.11.2012 10:00 16,2 C 9,1 C 0,0 UV-I 0,0 C 49 % 80 % 0 % 983,6 hPa 0,0 l/m 11,9 km/h (2 Bft) 0,00 h 0,00 h 16,8 km/h (3 Bft)
01.11.2012 11:00 16,2 C 9,4 C 0,0 UV-I 0,0 C 49 % 81 % 0 % 983,2 hPa 0,0 l/m 8,9 km/h (2 Bft) 0,00 h 0,17 h 12,0 km/h (2 Bft)
01.11.2012 12:00 16,3 C 9,8 C 0,0 UV-I 0,0 C 51 % 85 % 0 % 982,6 hPa 0,6 l/m 7,5 km/h (2 Bft) 0,00 h 0,50 h 11,1 km/h (2 Bft)
01.11.2012 13:00 16,2 C 10,1 C 0,0 UV-I 0,0 C 53 % 89 % 0 % 982,2 hPa 0,9 l/m 5,0 km/h (1 Bft) 0,00 h 0,40 h 6,3 km/h (2 Bft)
01.11.2012 14:00 16,3 C 9,7 C 0,0 UV-I 0,0 C 55 % 91 % 0 % 982,5 hPa 1,5 l/m 4,5 km/h (1 Bft) 0,00 h 0,10 h 6,7 km/h (2 Bft)
01.11.2012 15:00 16,0 C 8,9 C 0,0 UV-I 0,0 C 57 % 93 % 0 % 982,9 hPa 1,2 l/m 6,3 km/h (2 Bft) 0,00 h 0,00 h 9,5 km/h (2 Bft)
01.11.2012 16:00 15,5 C 8,0 C 0,0 UV-I 0,0 C 59 % 92 % 0 % 983,6 hPa 0,5 l/m 5,7 km/h (1 Bft) 0,00 h 0,00 h 7,2 km/h (2 Bft)
01.11.2012 17:00 15,6 C 7,6 C 0,0 UV-I 0,0 C 57 % 91 % 0 % 984,1 hPa 0,0 l/m 4,9 km/h (1 Bft) 0,00 h 0,00 h 8,2 km/h (2 Bft)
01.11.2012 18:00 15,1 C 7,7 C 0,0 UV-I 0,0 C 55 % 90 % 0 % 985,3 hPa 0,2 l/m 5,6 km/h (1 Bft) 0,00 h 0,07 h 7,5 km/h (2 Bft)
01.11.2012 19:00 14,9 C 7,6 C 0,0 UV-I 0,0 C 55 % 89 % 0 % 985,8 hPa 0,0 l/m 5,4 km/h (1 Bft) 0,00 h 0,00 h 7,6 km/h (2 Bft)
01.11.2012 20:00 15,1 C 7,3 C 0,0 UV-I 0,0 C 54 % 89 % 0 % 986,3 hPa 0,0 l/m 4,7 km/h (1 Bft) 0,00 h 0,00 h 7,0 km/h (2 Bft)
01.11.2012 21:00 15,1 C 6,9 C 0,0 UV-I 0,0 C 54 % 90 % 0 % 987,1 hPa 0,0 l/m 2,8 km/h (1 Bft) 0,00 h 0,00 h 3,9 km/h (1 Bft)
01.11.2012 22:00 15,2 C 7,1 C 0,0 UV-I 0,0 C 54 % 89 % 0 % 987,9 hPa 0,0 l/m 5,5 km/h (1 Bft) 0,00 h 0,00 h 8,8 km/h (2 Bft)
01.11.2012 23:00 15,2 C 7,6 C 0,0 UV-I 0,0 C 53 % 87 % 0 % 988,5 hPa 0,0 l/m 6,6 km/h (2 Bft) 0,00 h 0,00 h 9,8 km/h (2 Bft)
02.11.2012 00:00 15,1 C 7,5 C 0,0 UV-I 0,0 C 53 % 87 % 0 % 989,5 hPa 0,0 l/m 4,1 km/h (1 Bft) 0,00 h 0,00 h 7,6 km/h (2 Bft)
02.11.2012 01:00 15,1 C 7,6 C 0,0 UV-I 0,0 C 53 % 86 % 0 % 990,6 hPa 0,0 l/m 6,0 km/h (2 Bft) 0,00 h 0,00 h 9,7 km/h (2 Bft)
02.11.2012 02:00 15,2 C 7,6 C 0,0 UV-I 0,0 C 52 % 85 % 0 % 991,3 hPa 0,0 l/m 8,7 km/h (2 Bft) 0,00 h 0,10 h 14,4 km/h (3 Bft)
02.11.2012 03:00 15,1 C 7,6 C 0,0 UV-I 0,0 C 51 % 83 % 0 % 992,1 hPa 0,0 l/m 10,4 km/h (2 Bft) 0,00 h 0,00 h 15,0 km/h (3 Bft)
02.11.2012 04:00 15,0 C 7,4 C 0,0 UV-I 0,0 C 51 % 83 % 0 % 993,0 hPa 0,0 l/m 7,3 km/h (2 Bft) 0,00 h 0,00 h 9,5 km/h (2 Bft)
02.11.2012 05:00 14,9 C 7,0 C 0,0 UV-I 0,0 C 51 % 83 % 0 % 993,9 hPa 0,0 l/m 7,5 km/h (2 Bft) 0,00 h 0,00 h 11,0 km/h (2 Bft)
02.11.2012 06:00 14,9 C 6,9 C 0,0 UV-I 0,0 C 51 % 84 % 0 % 994,4 hPa 0,0 l/m 5,4 km/h (1 Bft) 0,00 h 0,00 h 8,5 km/h (2 Bft)
02.11.2012 07:00 15,1 C 7,0 C 0,0 UV-I 0,0 C 51 % 84 % 0 % 994,9 hPa 0,0 l/m 5,4 km/h (1 Bft) 0,00 h 0,00 h 7,2 km/h (2 Bft)
02.11.2012 08:00 15,2 C 6,9 C 0,0 UV-I 0,0 C 51 % 85 % 0 % 995,6 hPa 0,0 l/m 3,8 km/h (1 Bft) 0,00 h 0,00 h 6,3 km/h (2 Bft)
02.11.2012 09:00 15,2 C 7,5 C 0,0 UV-I 0,1 C 50 % 82 % 2 % 996,3 hPa 0,0 l/m 8,4 km/h (2 Bft) 0,00 h 0,00 h 13,7 km/h (3 Bft)
02.11.2012 10:00 15,2 C 8,1 C 0,1 UV-I 0,6 C 50 % 80 % 16 % 996,8 hPa 0,0 l/m 8,4 km/h (2 Bft) 0,00 h 0,00 h 11,2 km/h (2 Bft)
02.11.2012 11:00 15,4 C 9,1 C 0,5 UV-I 2,7 C 49 % 77 % 73 % 997,0 hPa 0,0 l/m 9,6 km/h (2 Bft) 0,43 h 0,00 h 14,6 km/h (3 Bft)
02.11.2012 12:00 15,7 C 10,2 C 0,6 UV-I 3,1 C 49 % 72 % 80 % 996,8 hPa 0,0 l/m 10,0 km/h (2 Bft) 0,47 h 0,00 h 13,6 km/h (3 Bft)
02.11.2012 13:00 16,0 C 10,6 C 0,2 UV-I 1,5 C 48 % 71 % 42 % 996,7 hPa 0,0 l/m 7,3 km/h (2 Bft) 0,13 h 0,00 h 10,4 km/h (2 Bft)
02.11.2012 14:00 16,4 C 10,9 C 0,0 UV-I 0,8 C 46 % 69 % 22 % 996,3 hPa 0,0 l/m 8,4 km/h (2 Bft) 0,00 h 0,00 h 12,2 km/h (2 Bft)
02.11.2012 15:00 16,6 C 10,6 C 0,0 UV-I 0,0 C 46 % 71 % 1 % 996,1 hPa 0,0 l/m 7,0 km/h (2 Bft) 0,00 h 0,27 h 10,1 km/h (2 Bft)
02.11.2012 16:00 16,4 C 8,8 C 0,0 UV-I 0,0 C 50 % 83 % 0 % 995,8 hPa 0,2 l/m 3,1 km/h (1 Bft) 0,00 h 0,57 h 3,7 km/h (1 Bft)
02.11.2012 17:00 16,3 C 8,2 C 0,0 UV-I 0,0 C 51 % 87 % 0 % 995,7 hPa 0,2 l/m 2,7 km/h (1 Bft) 0,00 h 0,67 h 4,6 km/h (1 Bft)
02.11.2012 18:00 16,3 C 7,6 C 0,0 UV-I 0,0 C 53 % 90 % 0 % 995,4 hPa 0,1 l/m 2,1 km/h (1 Bft) 0,00 h 0,07 h 3,0 km/h (1 Bft)
02.11.2012 19:00 16,4 C 7,5 C 0,0 UV-I 0,0 C 52 % 91 % 0 % 995,1 hPa 0,7 l/m 3,7 km/h (1 Bft) 0,00 h 0,53 h 5,5 km/h (1 Bft)
02.11.2012 20:00 15,8 C 7,0 C 0,0 UV-I 0,0 C 53 % 93 % 0 % 995,7 hPa 0,5 l/m 4,0 km/h (1 Bft) 0,00 h 0,00 h 5,6 km/h (1 Bft)
02.11.2012 21:00 15,3 C 5,9 C 0,0 UV-I 0,0 C 54 % 93 % 0 % 996,8 hPa 0,0 l/m 2,3 km/h (1 Bft) 0,00 h 0,00 h 4,4 km/h (1 Bft)
02.11.2012 22:00 15,1 C 5,6 C 0,0 UV-I 0,0 C 54 % 94 % 0 % 997,5 hPa 0,0 l/m 3,5 km/h (1 Bft) 0,00 h 0,00 h 6,7 km/h (2 Bft)
02.11.2012 23:00 14,8 C 5,9 C 0,0 UV-I 0,0 C 54 % 94 % 0 % 998,3 hPa 0,0 l/m 3,5 km/h (1 Bft) 0,00 h 0,00 h 4,8 km/h (1 Bft)
03.11.2012 00:00 14,8 C 6,3 C 0,0 UV-I 0,0 C 55 % 94 % 0 % 999,1 hPa 0,0 l/m 5,0 km/h (1 Bft) 0,00 h 0,00 h 8,2 km/h (2 Bft)
03.11.2012 01:00 14,7 C 6,4 C 0,0 UV-I 0,0 C 55 % 93 % 0 % 999,5 hPa 0,0 l/m 4,5 km/h (1 Bft) 0,00 h 0,00 h 6,2 km/h (2 Bft)
03.11.2012 02:00 14,8 C 6,1 C 0,0 UV-I 0,0 C 55 % 93 % 0 % 999,7 hPa 0,0 l/m 1,4 km/h (1 Bft) 0,00 h 0,00 h 2,1 km/h (1 Bft)
03.11.2012 03:00 14,8 C 5,2 C 0,0 UV-I 0,0 C 55 % 93 % 0 % 999,7 hPa 0,0 l/m 0,8 km/h (0 Bft) 0,00 h 0,00 h 1,3 km/h (1 Bft)
03.11.2012 04:00 14,7 C 4,5 C 0,0 UV-I 0,0 C 54 % 94 % 0 % 999,7 hPa 0,0 l/m 1,3 km/h (1 Bft) 0,00 h 0,00 h 2,2 km/h (1 Bft)
03.11.2012 05:00 14,7 C 4,5 C 0,0 UV-I 0,0 C 54 % 95 % 0 % 999,7 hPa 0,0 l/m 0,7 km/h (0 Bft) 0,00 h 0,00 h 1,6 km/h (1 Bft)
03.11.2012 06:00 14,7 C 5,0 C 0,0 UV-I 0,0 C 54 % 95 % 0 % 999,5 hPa 0,0 l/m 2,3 km/h (1 Bft) 0,00 h 0,03 h 3,1 km/h (1 Bft)
03.11.2012 07:00 14,6 C 5,7 C 0,0 UV-I 0,0 C 54 % 95 % 0 % 999,1 hPa 0,0 l/m 4,2 km/h (1 Bft) 0,00 h 0,00 h 7,2 km/h (2 Bft)
03.11.2012 08:00 14,7 C 6,6 C 0,0 UV-I 0,0 C 54 % 94 % 0 % 998,8 hPa 0,0 l/m 6,3 km/h (2 Bft) 0,00 h 0,00 h 8,9 km/h (2 Bft)
03.11.2012 09:00 14,8 C 7,1 C 0,0 UV-I 0,0 C 55 % 93 % 0 % 998,9 hPa 0,6 l/m 5,4 km/h (1 Bft) 0,00 h 0,80 h 8,3 km/h (2 Bft)
03.11.2012 10:00 14,8 C 7,1 C 0,0 UV-I 0,0 C 56 % 95 % 0 % 997,9 hPa 0,7 l/m 4,4 km/h (1 Bft) 0,00 h 0,70 h 5,5 km/h (1 Bft)
03.11.2012 11:00 15,0 C 7,2 C 0,0 UV-I 0,0 C 56 % 96 % 0 % 997,6 hPa 0,9 l/m 3,2 km/h (1 Bft) 0,00 h 0,77 h 4,4 km/h (1 Bft)
03.11.2012 12:00 15,1 C 7,5 C 0,0 UV-I 0,0 C 57 % 97 % 0 % 996,5 hPa 1,9 l/m 0,7 km/h (0 Bft) 0,00 h 0,68 h 0,3 km/h (0 Bft)
03.11.2012 13:00 15,1 C 7,9 C 0,2 UV-I 0,6 C 58 % 97 % 18 % 996,5 hPa 0,9 l/m 0,5 km/h (0 Bft) 0,00 h 0,00 h 1,0 km/h (0 Bft)
03.11.2012 14:00 15,7 C 8,6 C 0,2 UV-I 1,2 C 58 % 97 % 34 % 997,2 hPa 0,0 l/m 2,6 km/h (1 Bft) 0,00 h 0,00 h 4,1 km/h (1 Bft)
03.11.2012 15:00 16,3 C 8,9 C 0,1 UV-I 2,2 C 56 % 95 % 59 % 997,5 hPa 0,0 l/m 6,2 km/h (2 Bft) 0,57 h 0,00 h 11,0 km/h (2 Bft)
03.11.2012 16:00 16,5 C 8,6 C 0,0 UV-I 0,0 C 53 % 93 % 1 % 998,5 hPa 0,0 l/m 4,3 km/h (1 Bft) 0,00 h 0,00 h 5,6 km/h (1 Bft)
03.11.2012 17:00 15,6 C 7,9 C 0,0 UV-I 0,0 C 55 % 91 % 0 % 999,1 hPa 0,0 l/m 3,7 km/h (1 Bft) 0,00 h 0,00 h 5,6 km/h (1 Bft)
03.11.2012 18:00 15,1 C 7,3 C 0,0 UV-I 0,0 C 55 % 91 % 0 % 1000,1 hPa 0,0 l/m 4,5 km/h (1 Bft) 0,00 h 0,00 h 7,6 km/h (2 Bft)
03.11.2012 19:00 14,8 C 7,1 C 0,0 UV-I 0,0 C 55 % 90 % 0 % 1000,5 hPa 0,0 l/m 5,3 km/h (1 Bft) 0,00 h 0,00 h 8,5 km/h (2 Bft)
03.11.2012 20:00 14,8 C 6,9 C 0,0 UV-I 0,0 C 55 % 90 % 0 % 1000,9 hPa 0,0 l/m 4,3 km/h (1 Bft) 0,00 h 0,00 h 8,3 km/h (2 Bft)
03.11.2012 21:00 14,7 C 6,7 C 0,0 UV-I 0,0 C 55 % 90 % 0 % 1001,4 hPa 0,0 l/m 2,7 km/h (1 Bft) 0,00 h 0,00 h 5,1 km/h (1 Bft)
03.11.2012 22:00 14,6 C 6,5 C 0,0 UV-I 0,0 C 55 % 91 % 0 % 1001,7 hPa 0,0 l/m 1,5 km/h (1 Bft) 0,00 h 0,00 h 2,9 km/h (1 Bft)
03.11.2012 23:00 14,7 C 6,0 C 0,0 UV-I 0,0 C 55 % 92 % 0 % 1002,6 hPa 0,0 l/m 1,3 km/h (1 Bft) 0,00 h 0,00 h 2,8 km/h (1 Bft)
04.11.2012 00:00 14,6 C 4,6 C 0,0 UV-I 0,0 C 55 % 93 % 0 % 1002,9 hPa 0,0 l/m 0,6 km/h (0 Bft) 0,00 h 0,00 h 0,9 km/h (0 Bft)
04.11.2012 01:00 14,7 C 4,4 C 0,0 UV-I 0,0 C 55 % 94 % 0 % 1002,9 hPa 0,0 l/m 0,9 km/h (0 Bft) 0,00 h 0,00 h 1,8 km/h (1 Bft)
04.11.2012 02:00 14,6 C 4,3 C 0,0 UV-I 0,0 C 55 % 95 % 0 % 1003,0 hPa 0,0 l/m 0,7 km/h (0 Bft) 0,00 h 0,00 h 2,1 km/h (1 Bft)
04.11.2012 03:00 14,7 C 4,2 C 0,0 UV-I 0,0 C 54 % 95 % 0 % 1002,9 hPa 0,0 l/m 2,0 km/h (1 Bft) 0,00 h 0,00 h 2,8 km/h (1 Bft)
04.11.2012 04:00 14,7 C 4,1 C 0,0 UV-I 0,0 C 54 % 96 % 0 % 1002,4 hPa 0,0 l/m 1,0 km/h (0 Bft) 0,00 h 0,00 h 1,7 km/h (1 Bft)
04.11.2012 05:00 14,6 C 4,0 C 0,0 UV-I 0,0 C 54 % 96 % 0 % 1002,5 hPa 0,0 l/m 2,7 km/h (1 Bft) 0,00 h 0,00 h 4,6 km/h (1 Bft)
04.11.2012 06:00 14,6 C 3,9 C 0,0 UV-I 0,0 C 54 % 96 % 0 % 1002,3 hPa 0,0 l/m 2,9 km/h (1 Bft) 0,00 h 0,00 h 4,7 km/h (1 Bft)
04.11.2012 07:00 14,6 C 3,7 C 0,0 UV-I 0,0 C 54 % 97 % 0 % 1001,9 hPa 0,0 l/m 1,9 km/h (1 Bft) 0,00 h 0,00 h 2,9 km/h (1 Bft)
04.11.2012 08:00 14,6 C 3,5 C 0,0 UV-I 0,0 C 54 % 97 % 0 % 1001,6 hPa 0,0 l/m 2,2 km/h (1 Bft) 0,00 h 0,00 h 4,3 km/h (1 Bft)
04.11.2012 09:00 14,6 C 4,6 C 0,0 UV-I 0,0 C 54 % 98 % 0 % 1001,0 hPa 0,0 l/m 5,4 km/h (1 Bft) 0,00 h 0,00 h 7,3 km/h (2 Bft)
04.11.2012 10:00 14,7 C 6,1 C 0,0 UV-I 0,1 C 55 % 98 % 2 % 999,8 hPa 0,0 l/m 6,7 km/h (2 Bft) 0,00 h 0,00 h 9,5 km/h (2 Bft)
04.11.2012 11:00 14,9 C 7,3 C 0,2 UV-I 0,7 C 55 % 98 % 19 % 998,7 hPa 0,0 l/m 6,0 km/h (2 Bft) 0,00 h 0,00 h 7,7 km/h (2 Bft)
04.11.2012 12:00 15,2 C 8,9 C 0,5 UV-I 1,9 C 56 % 96 % 55 % 997,5 hPa 0,0 l/m 6,4 km/h (2 Bft) 0,00 h 0,00 h 7,8 km/h (2 Bft)
04.11.2012 13:00 15,5 C 10,0 C 0,1 UV-I 0,8 C 56 % 93 % 23 % 996,0 hPa 0,0 l/m 8,6 km/h (2 Bft) 0,00 h 0,00 h 12,8 km/h (3 Bft)
04.11.2012 14:00 15,4 C 9,8 C 0,0 UV-I 0,0 C 56 % 91 % 1 % 994,6 hPa 0,2 l/m 7,0 km/h (2 Bft) 0,00 h 0,47 h 8,8 km/h (2 Bft)
04.11.2012 15:00 15,2 C 9,2 C 0,0 UV-I 0,0 C 58 % 93 % 0 % 994,2 hPa 2,6 l/m 4,3 km/h (1 Bft) 0,00 h 0,33 h 6,7 km/h (2 Bft)
04.11.2012 16:00 15,2 C 9,4 C 0,0 UV-I 0,0 C 59 % 94 % 0 % 994,1 hPa 0,0 l/m 4,5 km/h (1 Bft) 0,00 h 0,00 h 6,2 km/h (2 Bft)
04.11.2012 17:00 15,1 C 9,0 C 0,0 UV-I 0,0 C 58 % 92 % 0 % 994,6 hPa 0,0 l/m 5,2 km/h (1 Bft) 0,00 h 0,00 h 7,1 km/h (2 Bft)
04.11.2012 18:00 14,9 C 8,5 C 0,0 UV-I 0,0 C 58 % 91 % 0 % 995,3 hPa 0,0 l/m 4,0 km/h (1 Bft) 0,00 h 0,00 h 6,3 km/h (2 Bft)
04.11.2012 19:00 14,8 C 8,2 C 0,0 UV-I 0,0 C 57 % 89 % 0 % 995,7 hPa 0,0 l/m 3,2 km/h (1 Bft) 0,00 h 0,00 h 4,9 km/h (1 Bft)
04.11.2012 20:00 14,9 C 8,8 C 0,0 UV-I 0,0 C 57 % 88 % 0 % 995,5 hPa 0,0 l/m 6,0 km/h (2 Bft) 0,00 h 0,00 h 8,3 km/h (2 Bft)
04.11.2012 21:00 14,8 C 9,2 C 0,0 UV-I 0,0 C 56 % 84 % 0 % 996,0 hPa 0,0 l/m 5,5 km/h (1 Bft) 0,00 h 0,00 h 6,5 km/h (2 Bft)
04.11.2012 22:00 14,8 C 9,2 C 0,0 UV-I 0,0 C 55 % 81 % 0 % 996,3 hPa 0,0 l/m 5,7 km/h (1 Bft) 0,00 h 0,00 h 10,2 km/h (2 Bft)
04.11.2012 23:00 15,0 C 9,3 C 0,0 UV-I 0,0 C 55 % 81 % 0 % 996,5 hPa 0,0 l/m 6,2 km/h (2 Bft) 0,00 h 0,00 h 9,5 km/h (2 Bft)
Min-Datum _ 29.10.12 29.10.12 29.10.12 29.10.12 29.10.12 31.10.12 29.10.12 01.11.12 - 30.10.12 - - 29.10.12
_ Min-Zeit 02:18 00:54 00:00 00:00 01:30 14:26 00:00 12:46 - 11:40 - - 00:00
Minimum _ 14,1 C 0,5 C 0,0 UV-I 0,0 C 41 % 53 % 0 % 982,2 hPa - 0,0 km/h (0 Bft) - - 0,0 km/h (0 Bft)
Max-Datum _ 31.10.12 31.10.12 31.10.12 31.10.12 01.11.12 04.11.12 30.10.12 29.10.12 04.11.12 01.11.12 30.10.12 29.10.12 02.11.12
_ Max-Zeit 15:24 14:22 12:30 11:00 16:36 09:30 11:28 00:00 15:24 10:10 11:26 08:42 09:42
Maximum _ 20,2 C 14,3 C 1,5 UV-I 6,8 C 60 % 98 % 100 % 1015,8 hPa 2,6 l/m 13,7 km/h
O-NO (3 Bft)
0,03 h 0,03 h 51,0 km/h
S (7 Bft)
Durchschnitt _ 15,4 C 7,1 C 0,0 UV-I 0,3 C 52 % 88 % 8 % 998,8 hPa #19,9 l/m 4,6 km/h (1 Bft) #8:00 h #15:35 h 6,8 km/h (2 Bft)
© 2012 W. Hausmann